Time,TemperatureF,DewpointF,PressureIn,WindDirection,WindDirectionDegrees,WindSpeedMPH,WindSpeedGustMPH,Humidity,HourlyPrecipIn,Conditions,Clouds,dailyrainin,SoftwareType,DateUTC
2015-05-23 00:04:00,59.9,52.7,30.10,West,266,3.5,3.5,77,0.00,FEW,,0.00,WeatherDisplay:10.37,2015-05-22 22:04:00,
2015-05-23 00:09:00,59.7,52.5,30.10,West,266,3.5,3.5,77,0.00,FEW,,0.00,WeatherDisplay:10.37,2015-05-22 22:09:00,
2015-05-23 00:14:00,59.6,52.4,30.10,West,266,3.5,3.5,77,0.00,FEW,,0.00,WeatherDisplay:10.37,2015-05-22 22:14:00,
2015-05-23 00:19:00,59.5,52.3,30.10,West,266,3.5,3.5,77,0.00,FEW,,0.00,WeatherDisplay:10.37,2015-05-22 22:19:00,
2015-05-23 00:24:00,59.4,52.2,30.10,West,266,3.5,3.5,77,0.00,FEW,,0.00,WeatherDisplay:10.37,2015-05-22 22:24:00,
2015-05-23 00:29:00,59.3,52.4,30.10,West,266,3.5,3.5,78,0.00,FEW,,0.00,WeatherDisplay:10.37,2015-05-22 22:29:00,
2015-05-23 00:34:00,59.1,52.2,30.10,West,274,6.9,6.9,78,0.00,FEW,,0.00,WeatherDisplay:10.37,2015-05-22 22:34:00,
2015-05-23 00:39:00,59.0,52.5,30.10,West,275,5.0,5.0,79,0.00,FEW,,0.00,WeatherDisplay:10.37,2015-05-22 22:39:00,
2015-05-23 00:44:00,59.0,52.5,30.10,West,276,6.9,6.9,79,0.00,FEW,,0.00,WeatherDisplay:10.37,2015-05-22 22:44:00,
2015-05-23 00:49:00,59.1,52.9,30.09,West,280,8.1,8.1,80,0.00,FEW,,0.00,WeatherDisplay:10.37,2015-05-22 22:49:00,
2015-05-23 00:54:00,59.2,53.0,30.09,West,279,8.1,8.1,80,0.00,FEW,,0.00,WeatherDisplay:10.37,2015-05-22 22:54:00,
2015-05-23 00:59:00,59.2,53.0,30.09,WNW,283,8.1,8.1,80,0.00,FEW,,0.00,WeatherDisplay:10.37,2015-05-22 22:59:00,
2015-05-23 01:04:00,59.2,53.0,30.09,West,281,8.1,8.1,80,0.00,FEW,,0.00,WeatherDisplay:10.37,2015-05-22 23:04:00,
2015-05-23 01:09:00,59.2,53.0,30.09,West,277,9.2,9.2,80,0.00,FEW,,0.00,WeatherDisplay:10.37,2015-05-22 23:09:00,
2015-05-23 01:14:00,59.1,52.9,30.09,West,278,8.1,8.1,80,0.00,FEW,,0.00,WeatherDisplay:10.37,2015-05-22 23:14:00,
2015-05-23 01:19:00,59.2,53.4,30.09,West,278,11.5,11.5,81,0.00,FEW,,0.00,WeatherDisplay:10.37,2015-05-22 23:19:00,
2015-05-23 01:24:00,59.3,53.5,30.09,West,279,12.0,12.0,81,0.00,FEW,,0.00,WeatherDisplay:10.37,2015-05-22 23:24:00,
2015-05-23 01:29:00,59.4,53.6,30.08,West,279,9.2,9.2,81,0.00,FEW,,0.00,WeatherDisplay:10.37,2015-05-22 23:29:00,
2015-05-23 01:34:00,59.4,53.6,30.08,West,275,11.5,11.5,81,0.00,FEW,,0.00,WeatherDisplay:10.37,2015-05-22 23:34:00,
2015-05-23 01:39:00,59.4,53.6,30.08,West,279,11.5,11.5,81,0.00,FEW,,0.00,WeatherDisplay:10.37,2015-05-22 23:39:00,
2015-05-23 01:44:00,59.4,53.6,30.08,West,277,8.1,8.1,81,0.00,FEW,,0.00,WeatherDisplay:10.37,2015-05-22 23:44:00,
2015-05-23 01:49:00,59.4,53.6,30.08,West,281,10.4,10.4,81,0.00,FEW,,0.00,WeatherDisplay:10.37,2015-05-22 23:49:00,
2015-05-23 01:54:00,59.4,53.6,30.08,WNW,285,9.2,9.2,81,0.00,FEW,,0.00,WeatherDisplay:10.37,2015-05-22 23:54:00,
2015-05-23 01:59:00,59.4,53.6,30.08,WNW,282,10.4,10.4,81,0.00,FEW,,0.00,WeatherDisplay:10.37,2015-05-22 23:59:00,
2015-05-23 02:04:00,59.3,53.5,30.07,West,280,10.4,10.4,81,0.00,FEW,,0.00,WeatherDisplay:10.37,2015-05-23 00:04:00,
2015-05-23 02:09:00,59.1,53.3,30.07,West,281,11.5,11.5,81,0.00,FEW,,0.00,WeatherDisplay:10.37,2015-05-23 00:09:00,
2015-05-23 02:14:00,59.0,53.2,30.07,West,279,10.4,10.4,81,0.00,FEW,,0.00,WeatherDisplay:10.37,2015-05-23 00:14:00,
2015-05-23 02:19:00,59.0,53.2,30.07,West,281,6.9,6.9,81,0.00,FEW,,0.00,WeatherDisplay:10.37,2015-05-23 00:19:00,
2015-05-23 02:24:00,58.9,53.1,30.07,West,281,4.6,4.6,81,0.00,FEW,,0.00,WeatherDisplay:10.37,2015-05-23 00:24:00,
2015-05-23 02:29:00,58.8,53.3,30.07,WNW,286,10.4,10.4,82,0.00,FEW,,0.00,WeatherDisplay:10.37,2015-05-23 00:29:00,
2015-05-23 02:34:00,58.8,53.3,30.07,WNW,283,6.9,6.9,82,0.00,FEW,,0.00,WeatherDisplay:10.37,2015-05-23 00:34:00,
2015-05-23 02:39:00,58.8,53.3,30.06,WNW,283,8.1,8.1,82,0.00,FEW,,0.00,WeatherDisplay:10.37,2015-05-23 00:39:00,
2015-05-23 02:44:00,58.7,53.2,30.06,WNW,283,7.0,7.0,82,0.00,FEW,,0.00,WeatherDisplay:10.37,2015-05-23 00:44:00,
2015-05-23 02:49:00,58.6,53.1,30.06,WNW,283,5.8,5.8,82,0.00,FEW,,0.00,WeatherDisplay:10.37,2015-05-23 00:49:00,
2015-05-23 02:54:00,58.6,53.1,30.06,WNW,283,3.5,3.5,82,0.00,FEW,,0.00,WeatherDisplay:10.37,2015-05-23 00:54:00,
2015-05-23 02:59:00,58.6,53.1,30.06,WNW,282,5.8,5.8,82,0.00,FEW,,0.00,WeatherDisplay:10.37,2015-05-23 00:59:00,
2015-05-23 03:04:00,58.6,53.1,30.06,WNW,282,5.8,5.8,82,0.00,FEW,,0.00,WeatherDisplay:10.37,2015-05-23 01:04:00,
2015-05-23 03:09:00,58.6,53.1,30.05,WNW,282,3.5,3.5,82,0.00,FEW,,0.00,WeatherDisplay:10.37,2015-05-23 01:09:00,
2015-05-23 03:14:00,58.7,53.2,30.05,WNW,282,2.3,2.3,82,0.00,FEW,,0.00,WeatherDisplay:10.37,2015-05-23 01:14:00,
2015-05-23 03:20:00,58.8,53.3,30.05,WNW,282,5.0,5.0,82,0.00,FEW,,0.00,WeatherDisplay:10.37,2015-05-23 01:20:00,
2015-05-23 03:25:00,58.9,53.1,30.05,WNW,282,3.5,3.5,81,0.00,FEW,,0.00,WeatherDisplay:10.37,2015-05-23 01:25:00,
2015-05-23 03:30:00,59.0,53.2,30.05,WNW,282,3.5,3.5,81,0.00,FEW,,0.00,WeatherDisplay:10.37,2015-05-23 01:30:00,
2015-05-23 03:35:00,59.0,53.2,30.05,WNW,282,3.5,3.5,81,0.00,FEW,,0.00,WeatherDisplay:10.37,2015-05-23 01:35:00,
2015-05-23 03:40:00,59.2,53.4,30.05,WNW,282,2.3,2.3,81,0.00,FEW,,0.00,WeatherDisplay:10.37,2015-05-23 01:40:00,
2015-05-23 03:45:00,59.2,53.0,30.05,WNW,282,0.0,0.0,80,0.00,FEW,,0.00,WeatherDisplay:10.37,2015-05-23 01:45:00,
2015-05-23 03:50:00,59.2,53.0,30.05,WNW,282,3.5,3.5,80,0.00,FEW,,0.00,WeatherDisplay:10.37,2015-05-23 01:50:00,
2015-05-23 03:55:00,59.1,52.9,30.04,WNW,282,5.8,5.8,80,0.00,FEW,,0.00,WeatherDisplay:10.37,2015-05-23 01:55:00,
2015-05-23 04:00:00,59.1,52.6,30.04,WNW,282,2.3,2.3,79,0.00,FEW,,0.00,WeatherDisplay:10.37,2015-05-23 02:00:00,
2015-05-23 04:05:00,59.0,52.5,30.04,WNW,282,0.0,0.0,79,0.00,FEW,,0.00,WeatherDisplay:10.37,2015-05-23 02:05:00,
2015-05-23 04:10:00,59.0,52.5,30.04,WNW,282,2.3,2.3,79,0.00,FEW,,0.00,WeatherDisplay:10.37,2015-05-23 02:10:00,
2015-05-23 04:15:00,59.1,52.6,30.04,WNW,282,2.3,2.3,79,0.00,FEW,,0.00,WeatherDisplay:10.37,2015-05-23 02:15:00,
2015-05-23 04:20:00,59.1,52.6,30.04,WNW,282,0.0,0.0,79,0.00,FEW,,0.00,WeatherDisplay:10.37,2015-05-23 02:20:00,
2015-05-23 04:25:00,59.0,52.5,30.04,WNW,282,1.1,1.1,79,0.00,FEW,,0.00,WeatherDisplay:10.37,2015-05-23 02:25:00,
2015-05-23 04:30:00,58.9,52.1,30.03,WNW,282,1.0,1.0,78,0.00,FEW,,0.00,WeatherDisplay:10.37,2015-05-23 02:30:00,
2015-05-23 04:35:00,58.7,51.9,30.03,WNW,282,2.3,2.3,78,0.00,FEW,,0.00,WeatherDisplay:10.37,2015-05-23 02:35:00,
2015-05-23 04:40:00,58.5,51.7,30.03,WNW,282,1.1,1.1,78,0.00,FEW,,0.00,WeatherDisplay:10.37,2015-05-23 02:40:00,
2015-05-23 04:45:00,58.3,51.5,30.03,WNW,282,2.3,2.3,78,0.00,FEW,,0.00,WeatherDisplay:10.37,2015-05-23 02:45:00,
2015-05-23 04:50:00,58.1,51.3,30.03,WNW,282,0.0,0.0,78,0.00,FEW,,0.00,WeatherDisplay:10.37,2015-05-23 02:50:00,
2015-05-23 04:55:00,57.9,51.4,30.03,WNW,282,3.5,3.5,79,0.00,FEW,,0.00,WeatherDisplay:10.37,2015-05-23 02:55:00,
2015-05-23 05:00:00,57.9,51.4,30.03,WNW,282,1.1,1.1,79,0.00,FEW,,0.00,WeatherDisplay:10.37,2015-05-23 03:00:00,
2015-05-23 05:05:00,57.9,51.4,30.03,WNW,282,3.5,3.5,79,0.00,FEW,,0.00,WeatherDisplay:10.37,2015-05-23 03:05:00,
2015-05-23 05:10:00,58.0,51.5,30.02,WNW,282,3.5,3.5,79,0.00,FEW,,0.00,WeatherDisplay:10.37,2015-05-23 03:10:00,
2015-05-23 05:15:00,58.2,51.4,30.02,WNW,282,5.8,5.8,78,0.00,FEW,,0.00,WeatherDisplay:10.37,2015-05-23 03:15:00,
2015-05-23 05:20:00,58.6,51.8,30.02,WNW,282,3.5,3.5,78,0.00,FEW,,0.00,WeatherDisplay:10.37,2015-05-23 03:20:00,
2015-05-23 05:25:00,58.7,51.5,30.02,WNW,284,3.5,3.5,77,0.00,FEW,,0.00,WeatherDisplay:10.37,2015-05-23 03:25:00,
2015-05-23 05:30:00,58.9,51.7,30.02,WNW,284,3.5,3.5,77,0.00,FEW,,0.00,WeatherDisplay:10.37,2015-05-23 03:30:00,
2015-05-23 05:35:00,59.0,51.4,30.02,WNW,284,1.1,1.1,76,0.00,FEW,,0.00,WeatherDisplay:10.37,2015-05-23 03:35:00,
2015-05-23 05:40:00,59.0,51.4,30.02,WNW,284,5.8,5.8,76,0.00,FEW,,0.00,WeatherDisplay:10.37,2015-05-23 03:40:00,
2015-05-23 05:45:00,59.1,51.2,30.02,West,281,5.8,5.8,75,0.00,FEW,,0.00,WeatherDisplay:10.37,2015-05-23 03:45:00,
2015-05-23 05:50:00,59.1,51.2,30.02,West,281,5.8,5.8,75,0.00,FEW,,0.00,WeatherDisplay:10.37,2015-05-23 03:50:00,
2015-05-23 05:55:00,59.1,51.2,30.02,West,281,4.6,4.6,75,0.00,FEW,,0.00,WeatherDisplay:10.37,2015-05-23 03:55:00,
2015-05-23 06:00:00,59.0,51.1,30.02,West,281,1.1,1.1,75,0.00,FEW,,0.00,WeatherDisplay:10.37,2015-05-23 04:00:00,
2015-05-23 06:05:00,58.9,51.0,30.02,West,281,2.3,2.3,75,0.00,FEW,,0.00,WeatherDisplay:10.37,2015-05-23 04:05:00,
2015-05-23 06:10:00,58.8,50.9,30.02,West,281,0.0,0.0,75,0.00,FEW,,0.00,WeatherDisplay:10.37,2015-05-23 04:10:00,
2015-05-23 06:15:00,58.7,50.8,30.02,West,281,0.0,0.0,75,0.00,FEW,,0.00,WeatherDisplay:10.37,2015-05-23 04:15:00,
2015-05-23 06:20:00,58.6,50.7,30.02,West,281,0.0,0.0,75,0.00,FEW,,0.00,WeatherDisplay:10.37,2015-05-23 04:20:00,
2015-05-23 06:25:00,58.5,50.6,30.02,West,281,0.0,0.0,75,0.00,FEW,,0.00,WeatherDisplay:10.37,2015-05-23 04:25:00,
2015-05-23 06:30:00,58.5,50.6,30.02,West,281,0.0,0.0,75,0.00,FEW,,0.00,WeatherDisplay:10.37,2015-05-23 04:30:00,
2015-05-23 06:35:00,58.3,50.4,30.02,West,281,1.1,1.1,75,0.00,FEW,,0.00,WeatherDisplay:10.37,2015-05-23 04:35:00,
2015-05-23 06:40:00,58.3,50.4,30.02,West,281,0.0,0.0,75,0.00,FEW,,0.00,WeatherDisplay:10.37,2015-05-23 04:40:00,
2015-05-23 06:45:00,58.2,50.3,30.02,West,281,2.0,2.0,75,0.00,FEW,,0.00,WeatherDisplay:10.37,2015-05-23 04:45:00,
2015-05-23 06:50:00,58.1,50.2,30.02,West,281,0.0,0.0,75,0.00,FEW,,0.00,WeatherDisplay:10.37,2015-05-23 04:50:00,
2015-05-23 06:55:00,58.0,50.1,30.02,NNW,331,2.3,2.3,75,0.00,FEW,,0.00,WeatherDisplay:10.37,2015-05-23 04:55:00,
2015-05-23 07:05:00,58.7,51.2,30.03,NNW,331,0.0,0.0,76,0.00,FEW,,0.00,WeatherDisplay:10.37,2015-05-23 05:05:00,
2015-05-23 07:10:00,58.8,50.9,30.03,NNW,331,0.0,0.0,75,0.00,FEW,,0.00,WeatherDisplay:10.37,2015-05-23 05:10:00,
2015-05-23 07:15:00,59.0,51.1,30.03,NNW,331,1.1,1.1,75,0.00,FEW,,0.00,WeatherDisplay:10.37,2015-05-23 05:15:00,
2015-05-23 07:20:00,59.3,51.4,30.03,NNW,331,2.3,2.3,75,0.00,FEW,,0.00,WeatherDisplay:10.37,2015-05-23 05:20:00,
2015-05-23 07:25:00,59.4,51.1,30.03,NNW,331,3.5,3.5,74,0.00,FEW,,0.00,WeatherDisplay:10.37,2015-05-23 05:25:00,
2015-05-23 07:30:00,59.5,50.8,30.03,NE,34,6.0,6.0,73,0.00,FEW,,0.00,WeatherDisplay:10.37,2015-05-23 05:30:00,
2015-05-23 07:35:00,59.2,50.2,30.03,NE,42,6.9,6.9,72,0.00,FEW,,0.00,WeatherDisplay:10.37,2015-05-23 05:35:00,
2015-05-23 07:40:00,58.8,49.8,30.03,NE,42,4.6,4.6,72,0.00,FEW,,0.00,WeatherDisplay:10.37,2015-05-23 05:40:00,
2015-05-23 07:45:00,58.9,49.5,30.04,NE,42,3.5,3.5,71,0.00,FEW,,0.00,WeatherDisplay:10.37,2015-05-23 05:45:00,
2015-05-23 07:50:00,59.4,50.4,30.04,NE,42,2.3,2.3,72,0.00,CLR,,0.00,WeatherDisplay:10.37,2015-05-23 05:50:00,
2015-05-23 07:55:00,59.8,50.4,30.04,NE,42,2.3,2.3,71,0.00,CLR,,0.00,WeatherDisplay:10.37,2015-05-23 05:55:00,
2015-05-23 08:00:00,60.0,50.6,30.04,NE,42,2.3,2.3,71,0.00,CLR,,0.00,WeatherDisplay:10.37,2015-05-23 06:00:00,
2015-05-23 08:05:00,60.2,50.4,30.04,NE,42,0.0,0.0,70,0.00,CLR,,0.00,WeatherDisplay:10.37,2015-05-23 06:05:00,
2015-05-23 08:10:00,60.6,50.4,30.04,NE,42,2.0,2.0,69,0.00,CLR,,0.00,WeatherDisplay:10.37,2015-05-23 06:10:00,
2015-05-23 08:15:00,61.1,50.5,30.04,NE,42,2.3,2.3,68,0.00,CLR,,0.00,WeatherDisplay:10.37,2015-05-23 06:15:00,
2015-05-23 08:20:00,61.8,50.7,30.04,NE,42,1.1,1.1,67,0.00,FEW,,0.00,WeatherDisplay:10.37,2015-05-23 06:20:00,
2015-05-23 08:25:00,62.2,50.7,30.05,NE,42,1.1,1.1,66,0.00,FEW,,0.00,WeatherDisplay:10.37,2015-05-23 06:25:00,
2015-05-23 08:30:00,62.4,50.1,30.05,NE,42,1.1,1.1,64,0.00,FEW,,0.00,WeatherDisplay:10.37,2015-05-23 06:30:00,
2015-05-23 08:35:00,62.6,49.8,30.05,NE,42,0.0,0.0,63,0.00,FEW,,0.00,WeatherDisplay:10.37,2015-05-23 06:35:00,
2015-05-23 08:40:00,62.8,49.6,30.05,NE,42,1.1,0.0,62,0.00,FEW,,0.00,WeatherDisplay:10.37,2015-05-23 06:40:00,
2015-05-23 08:45:00,63.0,49.3,30.05,NE,42,3.5,3.5,61,0.00,FEW,,0.00,WeatherDisplay:10.37,2015-05-23 06:45:00,
2015-05-23 08:50:00,62.8,49.1,30.05,NE,42,2.3,2.3,61,0.00,FEW,,0.00,WeatherDisplay:10.37,2015-05-23 06:50:00,
2015-05-23 08:55:00,62.7,49.1,30.05,NE,42,2.3,2.3,61,0.00,FEW,,0.00,WeatherDisplay:10.37,2015-05-23 06:55:00,
2015-05-23 09:00:00,62.8,48.3,30.05,NE,42,3.5,3.5,59,0.00,FEW,,0.00,WeatherDisplay:10.37,2015-05-23 07:00:00,
2015-05-23 09:05:00,63.2,48.6,30.05,NE,42,0.0,0.0,59,0.00,FEW,,0.00,WeatherDisplay:10.37,2015-05-23 07:05:00,
2015-05-23 09:10:00,64.0,48.9,30.05,NE,42,0.0,0.0,58,0.00,FEW,,0.00,WeatherDisplay:10.37,2015-05-23 07:10:00,
2015-05-23 09:15:00,64.7,49.1,30.05,NE,42,1.1,1.1,57,0.00,FEW,,0.00,WeatherDisplay:10.37,2015-05-23 07:15:00,
2015-05-23 09:21:00,64.9,48.8,30.05,NE,42,0.0,0.0,56,0.00,FEW,,0.00,WeatherDisplay:10.37,2015-05-23 07:21:00,
2015-05-23 09:26:00,65.0,48.4,30.05,NE,42,1.1,1.1,55,0.00,FEW,,0.00,WeatherDisplay:10.37,2015-05-23 07:26:00,
2015-05-23 09:31:00,65.1,48.5,30.05,NE,42,1.1,1.1,55,0.00,FEW,,0.00,WeatherDisplay:10.37,2015-05-23 07:31:00,
2015-05-23 09:36:00,64.9,48.3,30.05,NE,42,1.1,1.1,55,0.00,FEW,,0.00,WeatherDisplay:10.37,2015-05-23 07:36:00,
2015-05-23 09:41:00,64.9,48.3,30.05,NE,42,3.5,3.5,55,0.00,FEW,,0.00,WeatherDisplay:10.37,2015-05-23 07:41:00,
2015-05-23 09:46:00,64.6,48.5,30.05,NE,42,2.3,2.3,56,0.00,FEW,,0.00,WeatherDisplay:10.37,2015-05-23 07:46:00,
2015-05-23 09:51:00,64.5,49.4,30.05,NE,42,2.3,2.3,58,0.00,FEW,,0.00,WeatherDisplay:10.37,2015-05-23 07:51:00,
2015-05-23 09:56:00,64.3,50.1,30.05,NE,42,2.3,2.3,60,0.00,FEW,,0.00,WeatherDisplay:10.37,2015-05-23 07:56:00,
2015-05-23 10:01:00,64.4,50.2,30.05,NE,42,1.1,1.1,60,0.00,FEW,,0.00,WeatherDisplay:10.37,2015-05-23 08:01:00,
2015-05-23 10:06:00,64.5,50.7,30.05,NE,42,2.3,2.3,61,0.00,FEW,,0.00,WeatherDisplay:10.37,2015-05-23 08:06:00,
2015-05-23 10:11:00,64.7,50.9,30.05,NE,42,1.1,1.1,61,0.00,FEW,,0.00,WeatherDisplay:10.37,2015-05-23 08:11:00,
2015-05-23 10:16:00,65.1,51.3,30.05,NE,42,3.5,3.5,61,0.00,FEW,,0.00,WeatherDisplay:10.37,2015-05-23 08:16:00,
2015-05-23 10:21:00,64.9,51.6,30.04,NE,42,3.5,3.5,62,0.00,FEW,,0.00,WeatherDisplay:10.37,2015-05-23 08:21:00,
2015-05-23 10:26:00,64.8,51.9,30.04,NE,42,3.5,3.5,63,0.00,FEW,,0.00,WeatherDisplay:10.37,2015-05-23 08:26:00,
2015-05-23 10:31:00,65.0,51.7,30.04,NE,42,4.6,4.6,62,0.00,FEW,,0.00,WeatherDisplay:10.37,2015-05-23 08:31:00,
2015-05-23 10:36:00,65.3,51.9,30.04,ENE,74,4.6,4.6,62,0.00,FEW,,0.00,WeatherDisplay:10.37,2015-05-23 08:36:00,
2015-05-23 10:41:00,65.6,52.2,30.04,ENE,74,3.5,3.5,62,0.00,FEW,,0.00,WeatherDisplay:10.37,2015-05-23 08:41:00,
2015-05-23 10:46:00,66.0,51.7,30.04,ENE,74,4.6,4.6,60,0.00,FEW,,0.00,WeatherDisplay:10.37,2015-05-23 08:46:00,
2015-05-23 10:51:00,66.2,52.8,30.04,ENE,75,3.5,3.5,62,0.00,FEW,,0.00,WeatherDisplay:10.37,2015-05-23 08:51:00,
2015-05-23 10:56:00,66.3,53.3,30.04,ENE,75,3.5,3.5,63,0.00,FEW,,0.00,WeatherDisplay:10.37,2015-05-23 08:56:00,
2015-05-23 11:01:00,66.4,53.8,30.04,ENE,78,5.0,5.0,64,0.00,FEW,,0.00,WeatherDisplay:10.37,2015-05-23 09:01:00,
2015-05-23 11:06:00,65.5,54.2,30.04,East,94,9.2,9.2,67,0.00,FEW,,0.00,WeatherDisplay:10.37,2015-05-23 09:06:00,
2015-05-23 11:11:00,65.3,55.7,30.04,East,90,11.5,11.5,71,0.00,FEW,,0.00,WeatherDisplay:10.37,2015-05-23 09:11:00,
2015-05-23 11:16:00,64.8,55.6,30.04,East,90,10.0,10.0,72,0.00,FEW,,0.00,WeatherDisplay:10.37,2015-05-23 09:16:00,
2015-05-23 11:21:00,64.6,54.2,30.04,East,91,9.2,9.2,69,0.00,FEW,,0.00,WeatherDisplay:10.37,2015-05-23 09:21:00,
2015-05-23 11:26:00,64.7,54.7,30.04,East,90,9.2,9.2,70,0.00,FEW,,0.00,WeatherDisplay:10.37,2015-05-23 09:26:00,
2015-05-23 11:31:00,64.7,55.8,30.04,East,87,15.0,15.0,73,0.00,FEW,,0.00,WeatherDisplay:10.37,2015-05-23 09:31:00,
2015-05-23 11:36:00,64.6,56.1,30.04,East,92,12.7,12.7,74,0.00,FEW,,0.00,WeatherDisplay:10.37,2015-05-23 09:36:00,
2015-05-23 11:41:00,64.6,56.1,30.04,East,90,11.5,11.5,74,0.00,FEW,,0.00,WeatherDisplay:10.37,2015-05-23 09:41:00,
2015-05-23 11:46:00,64.4,56.3,30.04,East,88,11.5,11.5,75,0.00,FEW,,0.00,WeatherDisplay:10.37,2015-05-23 09:46:00,
2015-05-23 11:51:00,64.2,56.1,30.04,East,92,13.8,13.8,75,0.00,FEW,,0.00,WeatherDisplay:10.37,2015-05-23 09:51:00,
2015-05-23 11:56:00,64.4,56.3,30.03,East,93,13.8,13.8,75,0.00,FEW,,0.00,WeatherDisplay:10.37,2015-05-23 09:56:00,
2015-05-23 12:01:00,64.2,55.7,30.03,East,90,15.0,15.0,74,0.00,FEW,,0.00,WeatherDisplay:10.37,2015-05-23 10:01:00,
2015-05-23 12:06:00,63.9,55.4,30.03,East,91,12.7,12.7,74,0.00,FEW,,0.00,WeatherDisplay:10.37,2015-05-23 10:06:00,
2015-05-23 12:11:00,64.2,56.1,30.03,East,94,11.5,11.5,75,0.00,FEW,,0.00,WeatherDisplay:10.37,2015-05-23 10:11:00,
2015-05-23 12:16:00,64.1,56.0,30.03,East,97,12.7,12.7,75,0.00,FEW,,0.00,WeatherDisplay:10.37,2015-05-23 10:16:00,
2015-05-23 12:21:00,64.3,56.2,30.03,East,101,9.2,9.2,75,0.00,FEW,,0.00,WeatherDisplay:10.37,2015-05-23 10:21:00,
2015-05-23 12:26:00,64.2,56.1,30.03,ESE,104,10.4,10.4,75,0.00,FEW,,0.00,WeatherDisplay:10.37,2015-05-23 10:26:00,
2015-05-23 12:31:00,64.1,55.6,30.03,ESE,106,8.1,8.1,74,0.00,FEW,,0.00,WeatherDisplay:10.37,2015-05-23 10:31:00,
2015-05-23 12:36:00,64.4,55.9,30.03,ESE,107,8.0,8.0,74,0.00,FEW,,0.00,WeatherDisplay:10.37,2015-05-23 10:36:00,
2015-05-23 12:41:00,64.6,56.1,30.03,ESE,107,8.1,8.1,74,0.00,FEW,,0.00,WeatherDisplay:10.37,2015-05-23 10:41:00,
2015-05-23 12:46:00,64.6,56.1,30.03,ESE,107,8.1,8.1,74,0.00,FEW,,0.00,WeatherDisplay:10.37,2015-05-23 10:46:00,
2015-05-23 12:51:00,64.8,55.9,30.03,ESE,107,9.0,9.0,73,0.00,FEW,,0.00,WeatherDisplay:10.37,2015-05-23 10:51:00,
2015-05-23 12:56:00,64.6,55.7,30.02,ESE,111,9.2,9.2,73,0.00,FEW,,0.00,WeatherDisplay:10.37,2015-05-23 10:56:00,
2015-05-23 13:01:00,64.7,55.5,30.02,ESE,109,9.2,9.2,72,0.00,FEW,,0.00,WeatherDisplay:10.37,2015-05-23 11:01:00,
2015-05-23 13:06:00,64.7,55.5,30.02,ESE,110,9.2,9.2,72,0.00,FEW,,0.00,WeatherDisplay:10.37,2015-05-23 11:06:00,
2015-05-23 13:11:00,65.0,55.8,30.02,ESE,114,8.1,8.1,72,0.00,FEW,,0.00,WeatherDisplay:10.37,2015-05-23 11:11:00,
2015-05-23 13:16:00,65.2,55.6,30.02,ESE,115,8.1,8.1,71,0.00,FEW,,0.00,WeatherDisplay:10.37,2015-05-23 11:16:00,
2015-05-23 13:21:00,65.3,56.0,30.02,ESE,116,9.2,9.2,72,0.00,FEW,,0.00,WeatherDisplay:10.37,2015-05-23 11:21:00,
2015-05-23 13:26:00,65.0,55.4,30.02,ESE,117,9.2,9.2,71,0.00,FEW,,0.00,WeatherDisplay:10.37,2015-05-23 11:26:00,
2015-05-23 13:31:00,65.0,55.4,30.02,ESE,117,9.2,9.2,71,0.00,FEW,,0.00,WeatherDisplay:10.37,2015-05-23 11:31:00,
2015-05-23 13:36:00,65.1,55.1,30.02,SE,127,8.1,8.1,70,0.00,FEW,,0.00,WeatherDisplay:10.37,2015-05-23 11:36:00,
2015-05-23 13:41:00,65.0,54.6,30.02,SE,132,8.1,8.1,69,0.00,FEW,,0.00,WeatherDisplay:10.37,2015-05-23 11:41:00,
2015-05-23 13:46:00,65.1,55.1,30.02,SE,140,9.2,9.2,70,0.00,FEW,,0.00,WeatherDisplay:10.37,2015-05-23 11:46:00,
2015-05-23 13:51:00,65.2,55.2,30.01,SE,136,6.9,6.9,70,0.00,FEW,,0.00,WeatherDisplay:10.37,2015-05-23 11:51:00,
2015-05-23 13:56:00,65.7,56.0,30.01,SE,136,6.9,6.9,71,0.00,FEW,,0.00,WeatherDisplay:10.37,2015-05-23 11:56:00,
2015-05-23 14:01:00,65.9,55.8,30.01,SE,135,4.6,4.6,70,0.00,FEW,,0.00,WeatherDisplay:10.37,2015-05-23 12:01:00,
2015-05-23 14:06:00,65.9,55.4,30.01,SE,130,9.2,9.2,69,0.00,FEW,,0.00,WeatherDisplay:10.37,2015-05-23 12:06:00,
2015-05-23 14:11:00,65.7,55.6,30.01,ESE,121,10.0,10.0,70,0.00,FEW,,0.00,WeatherDisplay:10.37,2015-05-23 12:11:00,
2015-05-23 14:16:00,65.6,55.5,30.00,ESE,117,8.1,8.1,70,0.00,FEW,,0.00,WeatherDisplay:10.37,2015-05-23 12:16:00,
2015-05-23 14:21:00,65.4,55.4,30.00,ESE,106,11.5,11.5,70,0.00,FEW,,0.00,WeatherDisplay:10.37,2015-05-23 12:21:00,
2015-05-23 14:26:00,65.3,56.0,30.00,East,98,13.8,13.8,72,0.00,FEW,,0.00,WeatherDisplay:10.37,2015-05-23 12:26:00,
2015-05-23 14:31:00,65.2,55.9,30.00,East,90,14.0,14.0,72,0.00,FEW,,0.00,WeatherDisplay:10.37,2015-05-23 12:31:00,
2015-05-23 14:36:00,65.5,56.6,29.99,East,95,11.5,11.5,73,0.00,FEW,,0.00,WeatherDisplay:10.37,2015-05-23 12:36:00,
2015-05-23 14:41:00,65.7,56.4,29.99,East,92,13.8,13.8,72,0.00,FEW,,0.00,WeatherDisplay:10.37,2015-05-23 12:41:00,
2015-05-23 14:46:00,65.7,56.0,29.99,East,83,16.1,16.1,71,0.00,FEW,,0.00,WeatherDisplay:10.37,2015-05-23 12:46:00,
2015-05-23 14:51:00,65.6,55.9,29.99,East,100,17.3,17.3,71,0.00,FEW,,0.00,WeatherDisplay:10.37,2015-05-23 12:51:00,
2015-05-23 14:56:00,65.6,55.9,29.99,East,84,17.3,17.3,71,0.00,FEW,,0.00,WeatherDisplay:10.37,2015-05-23 12:56:00,
2015-05-23 15:01:00,65.4,56.1,29.99,East,99,18.4,18.4,72,0.00,FEW,,0.00,WeatherDisplay:10.37,2015-05-23 13:01:00,
2015-05-23 15:06:00,65.8,56.9,29.99,East,82,15.0,15.0,73,0.00,FEW,,0.00,WeatherDisplay:10.37,2015-05-23 13:06:00,
2015-05-23 15:11:00,65.7,56.4,29.99,ENE,78,19.6,19.6,72,0.00,FEW,,0.00,WeatherDisplay:10.37,2015-05-23 13:11:00,
2015-05-23 15:16:00,65.6,56.3,29.98,ENE,67,20.7,20.7,72,0.00,FEW,,0.00,WeatherDisplay:10.37,2015-05-23 13:16:00,
2015-05-23 15:21:00,65.6,56.7,29.98,ENE,65,18.4,18.4,73,0.00,FEW,,0.00,WeatherDisplay:10.37,2015-05-23 13:21:00,
2015-05-23 15:26:00,65.8,56.9,29.98,ENE,64,19.6,19.6,73,0.00,FEW,,0.00,WeatherDisplay:10.37,2015-05-23 13:26:00,
2015-05-23 15:31:00,65.7,56.8,29.98,ENE,71,19.6,19.6,73,0.00,FEW,,0.00,WeatherDisplay:10.37,2015-05-23 13:31:00,
2015-05-23 15:42:00,65.8,57.3,29.98,ENE,61,19.6,19.6,74,0.00,FEW,,0.00,WeatherDisplay:10.37,2015-05-23 13:42:00,
2015-05-23 15:47:00,65.5,57.0,29.98,ENE,67,18.4,18.4,74,0.00,FEW,,0.00,WeatherDisplay:10.37,2015-05-23 13:47:00,
2015-05-23 15:52:00,65.4,56.5,29.98,ENE,76,19.6,19.6,73,0.00,FEW,,0.00,WeatherDisplay:10.37,2015-05-23 13:52:00,
2015-05-23 15:57:00,65.6,56.7,29.98,ENE,67,17.3,17.3,73,0.00,FEW,,0.00,WeatherDisplay:10.37,2015-05-23 13:57:00,
2015-05-23 16:02:00,65.4,56.5,29.98,ENE,61,18.4,18.4,73,0.00,FEW,,0.00,WeatherDisplay:10.37,2015-05-23 14:02:00,
2015-05-23 16:07:00,65.5,56.6,29.98,ENE,57,19.6,19.6,73,0.00,FEW,,0.00,WeatherDisplay:10.37,2015-05-23 14:07:00,
2015-05-23 16:12:00,65.7,56.4,29.98,ENE,57,19.6,19.6,72,0.00,FEW,,0.00,WeatherDisplay:10.37,2015-05-23 14:12:00,
2015-05-23 16:17:00,65.6,56.3,29.98,ENE,57,19.6,19.6,72,0.00,FEW,,0.00,WeatherDisplay:10.37,2015-05-23 14:17:00,
2015-05-23 16:22:00,65.7,56.0,29.98,ENE,67,20.7,20.7,71,0.00,FEW,,0.00,WeatherDisplay:10.37,2015-05-23 14:22:00,
2015-05-23 16:27:00,65.6,55.5,29.98,NE,53,19.6,19.6,70,0.00,FEW,,0.00,WeatherDisplay:10.37,2015-05-23 14:27:00,
2015-05-23 16:32:00,65.7,56.0,29.98,ENE,69,18.0,18.0,71,0.00,FEW,,0.00,WeatherDisplay:10.37,2015-05-23 14:32:00,
2015-05-23 16:37:00,65.8,55.7,29.98,ENE,61,19.0,19.0,70,0.00,FEW,,0.00,WeatherDisplay:10.37,2015-05-23 14:37:00,
2015-05-23 16:42:00,65.7,56.0,29.98,ENE,61,17.3,17.3,71,0.00,FEW,,0.00,WeatherDisplay:10.37,2015-05-23 14:42:00,
2015-05-23 16:47:00,65.6,55.5,29.99,ENE,63,18.4,18.4,70,0.00,FEW,,0.00,WeatherDisplay:10.37,2015-05-23 14:47:00,
2015-05-23 16:57:00,65.7,56.0,29.99,ENE,61,17.3,17.3,71,0.00,FEW,,0.00,WeatherDisplay:10.37,2015-05-23 14:57:00,
2015-05-23 17:02:00,65.6,55.9,29.99,ENE,60,17.3,17.3,71,0.00,FEW,,0.00,WeatherDisplay:10.37,2015-05-23 15:02:00,
2015-05-23 17:07:00,65.5,55.8,29.99,ENE,59,17.0,17.0,71,0.00,FEW,,0.00,WeatherDisplay:10.37,2015-05-23 15:07:00,